createdAt,value
2022-10-02T00:02:24.000Z,11.3
2022-10-02T00:07:24.000Z,10.26
2022-10-02T00:12:24.000Z,9.34
2022-10-02T00:17:24.000Z,9.07
2022-10-02T00:22:25.000Z,8.96
2022-10-02T00:27:24.000Z,8.62
2022-10-02T00:32:25.000Z,8.07
2022-10-02T00:37:24.000Z,7.71
2022-10-02T00:42:25.000Z,7.36
2022-10-02T00:47:24.000Z,7.46
2022-10-02T00:52:24.000Z,7.57
2022-10-02T00:57:24.000Z,7.61
2022-10-02T01:02:25.000Z,7.35
2022-10-02T01:07:24.000Z,7.46
2022-10-02T01:12:24.000Z,7.12
2022-10-02T01:17:25.000Z,7.24
2022-10-02T01:22:24.000Z,7.29
2022-10-02T01:27:24.000Z,7.41
2022-10-02T01:32:25.000Z,7.27
2022-10-02T01:42:24.000Z,6.81
2022-10-02T01:47:25.000Z,6.49
2022-10-02T01:52:24.000Z,6.92
2022-10-02T01:57:25.000Z,7.12
2022-10-02T02:02:25.000Z,7.28
2022-10-02T02:07:25.000Z,7.45
2022-10-02T02:12:24.000Z,7.55
2022-10-02T02:17:25.000Z,8.3
2022-10-02T02:22:24.000Z,8.19
2022-10-02T02:27:24.000Z,7.92
2022-10-02T02:32:24.000Z,7.9
2022-10-02T02:37:24.000Z,6.75
2022-10-02T02:42:25.000Z,5.87
2022-10-02T02:47:24.000Z,5.52
2022-10-02T02:52:24.000Z,5.63
2022-10-02T02:57:24.000Z,5.9
2022-10-02T03:02:24.000Z,6.4
2022-10-02T03:07:24.000Z,7.5
2022-10-02T03:12:25.000Z,8.68
2022-10-02T03:17:24.000Z,8.4
2022-10-02T03:22:24.000Z,10.08
2022-10-02T03:27:24.000Z,9.85
2022-10-02T03:32:25.000Z,9.66
2022-10-02T03:37:24.000Z,9.12
2022-10-02T03:42:24.000Z,8.12
2022-10-02T03:47:24.000Z,7.16
2022-10-02T03:52:25.000Z,6.56
2022-10-02T03:57:25.000Z,6.19
2022-10-02T04:02:24.000Z,6.06
2022-10-02T04:07:24.000Z,5.62
2022-10-02T04:12:24.000Z,5.72
2022-10-02T04:17:24.000Z,5.94
2022-10-02T04:22:24.000Z,5.64
2022-10-02T04:27:24.000Z,5.01
2022-10-02T04:32:25.000Z,5.01
2022-10-02T04:37:25.000Z,4.9
2022-10-02T04:42:25.000Z,5.08
2022-10-02T04:47:24.000Z,5.15
2022-10-02T04:52:25.000Z,5.57
2022-10-02T04:57:24.000Z,5.48
2022-10-02T05:02:24.000Z,5.1
2022-10-02T05:07:25.000Z,5.08
2022-10-02T05:12:23.000Z,4.5
2022-10-02T05:22:24.000Z,4.44
2022-10-02T05:27:24.000Z,3.95
2022-10-02T05:32:24.000Z,3.56
2022-10-02T05:37:24.000Z,4.12
2022-10-02T05:42:24.000Z,3.5
2022-10-02T05:47:24.000Z,3.57
2022-10-02T05:52:24.000Z,3.74
2022-10-02T05:57:25.000Z,4.37
2022-10-02T06:02:25.000Z,4.53
2022-10-02T06:07:25.000Z,4.35
2022-10-02T06:12:24.000Z,3.85
2022-10-02T06:17:24.000Z,3.93
2022-10-02T06:22:24.000Z,4.05
2022-10-02T06:27:24.000Z,4.24
2022-10-02T06:32:24.000Z,4.35
2022-10-02T06:37:25.000Z,4.29
2022-10-02T06:42:24.000Z,4.24
2022-10-02T06:47:24.000Z,4.25
2022-10-02T06:52:24.000Z,4.78
2022-10-02T06:57:24.000Z,4.65
2022-10-02T07:02:24.000Z,4.45
2022-10-02T07:07:24.000Z,4.7
2022-10-02T07:12:25.000Z,4.95
2022-10-02T07:17:24.000Z,5.44
2022-10-02T07:22:25.000Z,5.82
2022-10-02T07:27:25.000Z,5.53
2022-10-02T07:32:24.000Z,5.5
2022-10-02T07:37:24.000Z,5.75
2022-10-02T07:42:24.000Z,5
2022-10-02T07:47:24.000Z,4.48
2022-10-02T07:57:24.000Z,4.96
2022-10-02T08:02:24.000Z,5.23
2022-10-02T08:07:25.000Z,4.76
2022-10-02T08:12:24.000Z,4
2022-10-02T08:17:24.000Z,3.35
2022-10-02T08:22:24.000Z,3.21
2022-10-02T08:27:24.000Z,4.1
2022-10-02T08:32:24.000Z,4.69
2022-10-02T08:37:24.000Z,4.9
2022-10-02T08:47:25.000Z,5.07
2022-10-02T08:52:24.000Z,5.21
2022-10-02T08:57:24.000Z,4.89
2022-10-02T09:02:25.000Z,5.52
2022-10-02T09:07:24.000Z,5.43
2022-10-02T09:12:24.000Z,5.12
2022-10-02T09:17:24.000Z,4.96
2022-10-02T09:22:24.000Z,4.77
2022-10-02T09:27:24.000Z,4.79
2022-10-02T09:32:25.000Z,4.68
2022-10-02T09:37:24.000Z,4.59
2022-10-02T09:42:24.000Z,5.32
2022-10-02T09:47:24.000Z,5.32
2022-10-02T09:52:24.000Z,5.24
2022-10-02T09:57:25.000Z,4.93
2022-10-02T10:07:24.000Z,4.96
2022-10-02T10:12:25.000Z,4.95
2022-10-02T10:17:24.000Z,4.62
2022-10-02T10:22:24.000Z,4.74
2022-10-02T10:27:24.000Z,4.81
2022-10-02T10:32:25.000Z,4.93
2022-10-02T10:37:25.000Z,4.76
2022-10-02T10:42:24.000Z,5.13
2022-10-02T10:47:24.000Z,5.01
2022-10-02T10:52:24.000Z,5
2022-10-02T10:57:25.000Z,5.33
2022-10-02T11:02:24.000Z,5.19
2022-10-02T11:07:25.000Z,5.17
2022-10-02T11:12:24.000Z,5.39
2022-10-02T11:17:24.000Z,6.63
2022-10-02T11:22:24.000Z,5.81
2022-10-02T11:27:24.000Z,5.3
2022-10-02T11:32:24.000Z,5.11
2022-10-02T11:37:24.000Z,5.26
2022-10-02T11:42:25.000Z,5.64
2022-10-02T11:47:25.000Z,5.66
2022-10-02T11:52:25.000Z,5.77
2022-10-02T11:57:25.000Z,5.6
2022-10-02T12:02:24.000Z,6.17
2022-10-02T12:07:25.000Z,5.81
2022-10-02T12:12:25.000Z,6.43
2022-10-02T12:17:24.000Z,6.42
2022-10-02T12:22:25.000Z,6.1
2022-10-02T12:27:24.000Z,6.86
2022-10-02T12:32:25.000Z,6.4
2022-10-02T12:37:24.000Z,6.74
2022-10-02T12:42:24.000Z,6.52
2022-10-02T12:47:24.000Z,6.37
2022-10-02T12:52:24.000Z,6.43
2022-10-02T12:57:24.000Z,6.57
2022-10-02T13:02:24.000Z,6.4
2022-10-02T13:07:25.000Z,6.18
2022-10-02T13:12:24.000Z,6.52
2022-10-02T13:17:24.000Z,6.67
2022-10-02T13:22:25.000Z,6.83
2022-10-02T13:32:24.000Z,7.69
2022-10-02T13:37:25.000Z,9.66
2022-10-02T13:42:24.000Z,15.25
2022-10-02T13:47:24.000Z,19.42
2022-10-02T13:52:24.000Z,13
2022-10-02T13:57:25.000Z,12
2022-10-02T14:02:25.000Z,12.47
2022-10-02T14:07:25.000Z,14.28
2022-10-02T14:12:24.000Z,15.76
2022-10-02T14:17:25.000Z,15.01
2022-10-02T14:22:25.000Z,16.41
2022-10-02T14:27:25.000Z,19.15
2022-10-02T14:32:24.000Z,21.81
2022-10-02T14:37:24.000Z,30.2
2022-10-02T14:42:24.000Z,40
2022-10-02T14:47:24.000Z,41.19
2022-10-02T14:52:25.000Z,43.08
2022-10-02T14:57:24.000Z,48.48
2022-10-02T15:02:25.000Z,49.26
2022-10-02T15:07:24.000Z,52.91
2022-10-02T15:12:25.000Z,47.61
2022-10-02T15:17:25.000Z,46.38
2022-10-02T15:22:24.000Z,44.72
2022-10-02T15:27:25.000Z,38.82
2022-10-02T15:32:24.000Z,29.76
2022-10-02T15:37:24.000Z,32.31
2022-10-02T15:42:24.000Z,28.61
2022-10-02T15:47:25.000Z,22.52
2022-10-02T15:52:24.000Z,19.64
2022-10-02T15:57:24.000Z,20.45
2022-10-02T16:02:25.000Z,23.52
2022-10-02T16:07:25.000Z,26.37
2022-10-02T16:12:24.000Z,24.84
2022-10-02T16:17:24.000Z,22.84
2022-10-02T16:22:23.000Z,20.08
2022-10-02T16:27:24.000Z,19.73
2022-10-02T16:32:25.000Z,18.94
2022-10-02T16:37:24.000Z,18.09
2022-10-02T16:42:24.000Z,16.37
2022-10-02T16:47:24.000Z,13.33
2022-10-02T16:52:25.000Z,14.3
2022-10-02T16:57:25.000Z,14.73
2022-10-02T17:02:25.000Z,15.05
2022-10-02T17:07:25.000Z,14.12
2022-10-02T17:12:24.000Z,15.03
2022-10-02T17:17:25.000Z,16.14
2022-10-02T17:22:24.000Z,15.77
2022-10-02T17:27:24.000Z,14.27
2022-10-02T17:32:24.000Z,12.89
2022-10-02T17:37:24.000Z,12.27
2022-10-02T17:42:25.000Z,12.22
2022-10-02T17:52:24.000Z,11.65
2022-10-02T17:57:24.000Z,11.38
2022-10-02T18:02:24.000Z,10.86
2022-10-02T18:07:24.000Z,11.09
2022-10-02T18:12:25.000Z,11.07
2022-10-02T18:17:24.000Z,10.3
2022-10-02T18:22:25.000Z,10.6
2022-10-02T18:27:25.000Z,11.43
2022-10-02T18:32:25.000Z,12.43
2022-10-02T18:37:24.000Z,14.11
2022-10-02T18:42:24.000Z,14.26
2022-10-02T18:47:24.000Z,12.74
2022-10-02T18:52:24.000Z,11.69
2022-10-02T18:57:24.000Z,11.26
2022-10-02T19:02:24.000Z,11.39
2022-10-02T19:07:24.000Z,11.92
2022-10-02T19:17:24.000Z,12.06
2022-10-02T19:22:24.000Z,12.04
2022-10-02T19:32:24.000Z,10.53
2022-10-02T19:37:24.000Z,10.71
2022-10-02T19:42:24.000Z,10.14
2022-10-02T19:47:25.000Z,15.06
2022-10-02T19:52:24.000Z,12.23
2022-10-02T19:57:25.000Z,9.97
2022-10-02T20:02:25.000Z,9.7
2022-10-02T20:07:24.000Z,9.29
2022-10-02T20:12:25.000Z,9.59
2022-10-02T20:17:25.000Z,10.3
2022-10-02T20:22:25.000Z,9.57
2022-10-02T20:27:24.000Z,9.81
2022-10-02T20:32:25.000Z,9.12
2022-10-02T20:37:24.000Z,9.27
2022-10-02T20:42:25.000Z,9.21
2022-10-02T20:47:24.000Z,9.04
2022-10-02T20:52:25.000Z,9.51
2022-10-02T20:57:24.000Z,9.73
2022-10-02T21:02:25.000Z,10.23
2022-10-02T21:07:24.000Z,12.08
2022-10-02T21:12:24.000Z,13.19
2022-10-02T21:17:24.000Z,12.24
2022-10-02T21:22:24.000Z,13.33
2022-10-02T21:27:24.000Z,14.17
2022-10-02T21:32:25.000Z,14.35
2022-10-02T21:37:24.000Z,14.3
2022-10-02T21:42:25.000Z,14
2022-10-02T21:47:24.000Z,14.46
2022-10-02T21:52:24.000Z,14.17
2022-10-02T21:57:24.000Z,13.68
2022-10-02T22:02:25.000Z,13.97
2022-10-02T22:07:25.000Z,13.61
2022-10-02T22:12:24.000Z,13.17
2022-10-02T22:17:24.000Z,13.61
2022-10-02T22:22:25.000Z,13.49
2022-10-02T22:27:25.000Z,14.17
2022-10-02T22:32:24.000Z,14.33
2022-10-02T22:37:24.000Z,15.19
2022-10-02T22:42:24.000Z,15.66
2022-10-02T22:47:25.000Z,15.32
2022-10-02T22:52:24.000Z,15.07
2022-10-02T22:57:25.000Z,15.32
2022-10-02T23:02:24.000Z,16.41
2022-10-02T23:07:24.000Z,16.89
2022-10-02T23:12:24.000Z,17.4
2022-10-02T23:17:24.000Z,16.9
2022-10-02T23:22:24.000Z,17.64
2022-10-02T23:27:24.000Z,16.52
2022-10-02T23:32:24.000Z,15.92
2022-10-02T23:37:24.000Z,15.59
2022-10-02T23:42:24.000Z,15.37
2022-10-02T23:47:24.000Z,15.91
2022-10-02T23:52:24.000Z,15.75
2022-10-02T23:57:24.000Z,16.23
